Time;durP1;ratioP1;P1;durP2;ratioP2;P2;SDS_P1;SDS_P2;PMS_P1;PMS_P2;Temp;Humidity;BMP_temperature;BMP_pressure;BME280_temperature;BME280_humidity;BME280_pressure;Samples;Min_cycle;Max_cycle;Signal;HPM_P1;HPM_P2
2022/08/19 00:01:50;;;;;;;;;;;;;;;33.85;28.51;98606.31;4514450;31;34338;-84
2022/08/19 00:04:20;;;;;;;;;;;;;;;33.60;28.74;98604.16;4514164;31;33764;-84
2022/08/19 00:06:48;;;;;;;;;;;;;;;33.58;28.83;98612.38;4515786;31;35703;-83
2022/08/19 00:09:17;;;;;;;;;;;;;;;33.20;29.57;98617.66;4516052;31;34733;-84
2022/08/19 00:11:45;;;;;;;;;;;;;;;33.48;29.15;98607.97;4516004;31;33368;-83
2022/08/19 00:14:15;;;;;;;;;;;;;;;33.08;29.63;98608.84;4515660;31;33626;-83
2022/08/19 00:16:44;;;;;;;;;;;;;;;32.80;30.20;98611.25;4515600;31;34250;-83
2022/08/19 00:19:11;;;;;;;;;;;;;;;32.90;30.05;98622.03;4515945;31;34196;-82
2022/08/19 00:21:39;;;;;;;;;;;;;;;33.32;29.52;98622.75;4515713;31;34070;-83
2022/08/19 00:24:07;;;;;;;;;;;;;;;33.23;29.63;98612.84;4515810;31;35061;-84
2022/08/19 00:26:36;;;;;;;;;;;;;;;32.90;30.04;98605.94;4515828;31;34256;-84
2022/08/19 00:29:04;;;;;;;;;;;;;;;33.29;29.57;98612.28;4515419;31;34222;-83
2022/08/19 00:31:31;;;;;;;;;;;;;;;33.12;29.71;98613.81;4515723;31;33913;-84
2022/08/19 00:33:59;;;;;;;;;;;;;;;33.10;29.78;98604.19;4514924;31;34170;-84
2022/08/19 00:36:28;;;;;;;;;;;;;;;33.48;29.44;98613.34;4515757;31;35197;-83
2022/08/19 00:38:55;;;;;;;;;;;;;;;33.62;29.15;98618.34;4515030;31;34956;-83
2022/08/19 00:41:23;;;;;;;;;;;;;;;33.30;29.19;98614.00;4514204;31;33133;-84
2022/08/19 00:44:07;;;;;;;;;;;;;;;33.40;29.30;98603.25;4515372;31;34264;-83
2022/08/19 00:46:36;;;;;;;;;;;;;;;33.47;29.19;98607.13;4514278;31;34998;-84
2022/08/19 00:49:06;;;;;;;;;;;;;;;33.16;29.67;98600.97;4508595;31;34793;-85
2022/08/19 00:51:34;;;;;;;;;;;;;;;33.48;29.35;98597.22;4512068;31;33945;-83
2022/08/19 00:54:02;;;;;;;;;;;;;;;33.07;29.86;98596.38;4514090;31;33974;-83
2022/08/19 00:56:30;;;;;;;;;;;;;;;33.32;29.54;98603.97;4515235;31;35187;-83
2022/08/19 00:58:59;;;;;;;;;;;;;;;33.36;29.58;98602.69;4512929;31;34351;-83
2022/08/19 01:01:27;;;;;;;;;;;;;;;33.47;29.31;98604.44;4501302;31;33356;-83
2022/08/19 01:03:54;;;;;;;;;;;;;;;33.47;29.15;98591.00;4515090;31;34883;-84
2022/08/19 01:06:25;;;;;;;;;;;;;;;33.15;29.65;98593.91;4514939;31;34360;-83
2022/08/19 01:08:53;;;;;;;;;;;;;;;33.41;29.21;98589.72;4507976;31;33912;-82
2022/08/19 01:11:20;;;;;;;;;;;;;;;32.96;29.84;98588.44;4501491;31;33272;-83
2022/08/19 01:13:50;;;;;;;;;;;;;;;33.43;29.22;98590.41;4515502;31;34956;-86
2022/08/19 01:16:18;;;;;;;;;;;;;;;33.02;29.82;98591.44;4514537;31;35262;-83
2022/08/19 01:18:45;;;;;;;;;;;;;;;32.87;29.99;98582.87;4515527;31;34341;-82
2022/08/19 01:21:40;;;;;;;;;;;;;;;33.06;29.61;98592.00;4515419;31;33182;-82
2022/08/19 01:24:08;;;;;;;;;;;;;;;33.19;29.25;98589.94;4513478;31;35075;-85
2022/08/19 01:26:40;;;;;;;;;;;;;;;33.32;29.32;98593.22;4515550;31;34352;-83
2022/08/19 01:29:08;;;;;;;;;;;;;;;32.90;29.68;98584.44;4514187;31;34988;-83
2022/08/19 01:31:36;;;;;;;;;;;;;;;32.21;30.90;98585.06;4515334;31;34077;-82
2022/08/19 01:34:03;;;;;;;;;;;;;;;33.26;29.41;98583.00;4515178;31;34424;-84
2022/08/19 01:36:30;;;;;;;;;;;;;;;33.07;29.35;98578.47;4515321;31;35177;-82
2022/08/19 01:38:58;;;;;;;;;;;;;;;31.66;31.61;98585.16;4515091;31;34707;-83
2022/08/19 01:41:25;;;;;;;;;;;;;;;31.44;31.96;98575.41;4515432;31;33621;-81
2022/08/19 01:43:52;;;;;;;;;;;;;;;31.96;31.13;98579.09;4515054;31;34284;-83
2022/08/19 01:46:43;;;;;;;;;;;;;;;31.96;31.26;98567.53;4515417;31;35069;-82
2022/08/19 01:49:10;;;;;;;;;;;;;;;32.01;31.18;98564.44;4514295;31;34957;-83
2022/08/19 01:51:39;;;;;;;;;;;;;;;31.83;31.54;98565.00;4514057;31;33349;-83
2022/08/19 01:54:07;;;;;;;;;;;;;;;32.16;30.98;98552.41;4515203;31;34529;-82
2022/08/19 01:56:35;;;;;;;;;;;;;;;31.62;31.85;98554.25;4514965;31;35237;-83
2022/08/19 01:59:03;;;;;;;;;;;;;;;31.21;32.43;98550.44;4515193;31;33756;-83
2022/08/19 02:01:32;;;;;;;;;;;;;;;31.00;32.80;98545.03;4513686;31;33964;-83
2022/08/19 02:04:00;;;;;;;;;;;;;;;30.61;33.60;98537.50;4515209;31;34782;-82
2022/08/19 02:06:28;;;;;;;;;;;;;;;30.83;33.18;98544.69;4514948;31;34362;-82
2022/08/19 02:08:55;;;;;;;;;;;;;;;30.68;33.56;98541.38;4515115;31;33991;-85
2022/08/19 02:11:28;;;;;;;;;;;;;;;30.84;33.17;98546.38;4514999;31;33648;-82
2022/08/19 02:13:55;;;;;;;;;;;;;;;30.19;34.57;98545.25;4515439;31;34244;-85
2022/08/19 02:16:22;;;;;;;;;;;;;;;31.41;32.39;98539.97;4514860;31;34616;-83
2022/08/19 02:18:50;;;;;;;;;;;;;;;30.44;33.94;98545.03;4514935;31;34733;-82
2022/08/19 02:21:18;;;;;;;;;;;;;;;31.29;32.71;98540.94;4515519;31;33180;-83
2022/08/19 02:23:45;;;;;;;;;;;;;;;31.02;33.15;98539.56;4513548;31;34994;-86
2022/08/19 02:26:12;;;;;;;;;;;;;;;30.56;33.82;98529.84;4513136;31;34287;-82
2022/08/19 02:28:40;;;;;;;;;;;;;;;30.28;34.42;98525.84;4514556;31;34189;-82
2022/08/19 02:31:09;;;;;;;;;;;;;;;30.42;34.12;98524.72;4515182;31;34780;-83
2022/08/19 02:33:37;;;;;;;;;;;;;;;30.90;33.24;98528.00;4515031;31;34986;-82
2022/08/19 02:36:05;;;;;;;;;;;;;;;30.87;33.29;98541.62;4515159;31;35471;-83
2022/08/19 02:38:32;;;;;;;;;;;;;;;31.48;32.17;98539.34;4513123;31;34868;-82
2022/08/19 02:41:00;;;;;;;;;;;;;;;30.74;33.44;98535.59;4513690;31;34042;-82
2022/08/19 02:43:28;;;;;;;;;;;;;;;31.15;32.54;98536.75;4514991;31;34272;-82
2022/08/19 02:46:01;;;;;;;;;;;;;;;31.69;31.70;98538.50;4514986;31;34488;-82
2022/08/19 02:48:28;;;;;;;;;;;;;;;31.55;31.97;98546.84;4514666;31;35049;-83
2022/08/19 02:50:55;;;;;;;;;;;;;;;30.90;33.10;98554.78;4514869;31;33300;-82
2022/08/19 02:53:23;;;;;;;;;;;;;;;31.12;32.75;98547.69;4514775;31;34951;-82
2022/08/19 02:55:51;;;;;;;;;;;;;;;32.05;31.10;98549.78;4514722;31;34154;-82
2022/08/19 02:58:18;;;;;;;;;;;;;;;31.36;32.20;98556.41;4514673;31;34302;-82
2022/08/19 03:00:47;;;;;;;;;;;;;;;31.19;32.43;98555.09;4514216;31;33478;-82
2022/08/19 03:03:15;;;;;;;;;;;;;;;31.38;32.12;98557.16;4514565;31;34696;-83
2022/08/19 03:05:42;;;;;;;;;;;;;;;32.02;31.06;98544.72;4513212;31;34413;-82
2022/08/19 03:08:23;;;;;;;;;;;;;;;31.10;32.34;98549.62;4514618;31;33875;-83
2022/08/19 03:10:52;;;;;;;;;;;;;;;31.44;31.90;98558.47;4514387;31;33570;-83
2022/08/19 03:13:20;;;;;;;;;;;;;;;31.87;31.24;98571.00;4513828;31;34766;-83
2022/08/19 03:15:48;;;;;;;;;;;;;;;32.38;30.58;98568.34;4514404;31;34354;-83
2022/08/19 03:18:16;;;;;;;;;;;;;;;32.74;30.04;98566.16;4509343;31;34051;-83
2022/08/19 03:20:45;;;;;;;;;;;;;;;32.29;30.68;98568.31;4500225;31;33921;-82
2022/08/19 03:23:13;;;;;;;;;;;;;;;32.55;29.93;98569.63;4499766;31;34065;-83
2022/08/19 03:25:42;;;;;;;;;;;;;;;32.36;30.49;98574.84;4514424;31;34492;-83
2022/08/19 03:28:11;;;;;;;;;;;;;;;32.18;30.79;98571.91;4514400;31;34858;-82
2022/08/19 03:30:40;;;;;;;;;;;;;;;31.39;31.97;98580.28;4514473;31;32653;-83
2022/08/19 03:33:09;;;;;;;;;;;;;;;32.25;30.67;98577.59;4513271;31;34123;-83
2022/08/19 03:35:44;;;;;;;;;;;;;;;32.01;31.01;98588.56;4514027;31;34705;-82
2022/08/19 03:38:12;;;;;;;;;;;;;;;30.85;33.06;98575.72;4513874;31;33921;-82
2022/08/19 03:40:39;;;;;;;;;;;;;;;31.04;32.84;98579.59;4514430;31;33271;-83
2022/08/19 03:43:06;;;;;;;;;;;;;;;31.19;32.73;98583.72;4514133;31;34221;-82
2022/08/19 03:45:33;;;;;;;;;;;;;;;29.80;35.31;98593.59;4514624;31;34120;-82
2022/08/19 03:48:01;;;;;;;;;;;;;;;29.30;36.45;98602.66;4513967;31;35056;-82
2022/08/19 03:50:28;;;;;;;;;;;;;;;30.03;35.19;98604.38;4514038;31;34501;-83
2022/08/19 03:52:55;;;;;;;;;;;;;;;30.30;34.66;98604.09;4514134;31;34755;-82
2022/08/19 03:55:23;;;;;;;;;;;;;;;29.98;35.29;98599.37;4514335;31;34273;-82
2022/08/19 03:57:51;;;;;;;;;;;;;;;29.94;35.25;98597.91;4513610;31;34250;-83
2022/08/19 04:00:24;;;;;;;;;;;;;;;29.37;36.59;98595.06;4514196;31;32938;-82
2022/08/19 04:02:52;;;;;;;;;;;;;;;30.36;34.54;98594.75;4514225;31;34501;-83
2022/08/19 04:05:28;;;;;;;;;;;;;;;31.00;33.38;98595.91;4512197;31;35225;-82
2022/08/19 04:07:58;;;;;;;;;;;;;;;30.64;34.12;98607.66;4513848;31;34849;-82
2022/08/19 04:10:27;;;;;;;;;;;;;;;30.74;33.87;98611.38;4513670;31;32959;-82
2022/08/19 04:12:54;;;;;;;;;;;;;;;29.90;35.30;98616.97;4513767;31;34969;-82
2022/08/19 04:15:22;;;;;;;;;;;;;;;30.81;33.87;98611.72;4513479;31;34106;-83
2022/08/19 04:17:49;;;;;;;;;;;;;;;30.16;35.04;98615.00;4513691;31;34293;-82
2022/08/19 04:20:16;;;;;;;;;;;;;;;31.08;33.28;98614.03;4513539;31;33308;-82
2022/08/19 04:22:44;;;;;;;;;;;;;;;29.80;35.66;98619.47;4513546;31;33972;-82
2022/08/19 04:25:11;;;;;;;;;;;;;;;29.42;36.45;98615.13;4513854;31;35060;-82
2022/08/19 04:27:38;;;;;;;;;;;;;;;29.64;36.16;98619.75;4516255;31;34709;-82
2022/08/19 04:30:06;;;;;;;;;;;;;;;29.70;35.86;98619.31;4515916;31;33420;-82
2022/08/19 04:32:35;;;;;;;;;;;;;;;29.31;36.75;98618.56;4515508;31;35095;-82
2022/08/19 04:35:02;;;;;;;;;;;;;;;29.20;37.21;98628.31;4515464;31;35299;-82
2022/08/19 04:37:44;;;;;;;;;;;;;;;29.19;37.16;98618.62;4515707;31;34975;-82
2022/08/19 04:42:58;;;;;;;;;;;;;;;28.97;37.64;98625.44;4515755;31;34260;-82
2022/08/19 04:45:25;;;;;;;;;;;;;;;29.46;36.67;98626.44;4515552;31;34133;-82
2022/08/19 04:47:55;;;;;;;;;;;;;;;28.91;37.76;98625.06;4515700;31;34863;-82
2022/08/19 04:50:43;;;;;;;;;;;;;;;29.11;37.38;98624.50;4515703;31;34163;-82
2022/08/19 04:53:10;;;;;;;;;;;;;;;29.62;36.50;98626.19;4515817;31;34998;-82
2022/08/19 04:55:38;;;;;;;;;;;;;;;30.49;34.62;98617.75;4515357;31;34411;-82
2022/08/19 04:58:06;;;;;;;;;;;;;;;30.36;35.01;98637.56;4515557;31;34913;-82
2022/08/19 05:00:33;;;;;;;;;;;;;;;29.26;37.17;98639.41;4515804;31;33394;-81
2022/08/19 05:03:04;;;;;;;;;;;;;;;29.90;35.96;98636.53;4514134;31;34928;-82
2022/08/19 05:05:38;;;;;;;;;;;;;;;29.15;37.04;98628.66;4515327;31;35219;-85
2022/08/19 05:08:12;;;;;;;;;;;;;;;29.71;36.37;98630.84;4514405;31;34387;-82
2022/08/19 05:10:41;;;;;;;;;;;;;;;29.65;36.34;98636.63;4514402;31;33599;-82
2022/08/19 05:13:10;;;;;;;;;;;;;;;29.87;36.21;98633.22;4515560;31;35014;-82
2022/08/19 05:15:37;;;;;;;;;;;;;;;30.46;34.71;98631.38;4515562;31;34228;-82
2022/08/19 05:23:57;;;;;;;;;;;;;;;30.20;35.46;98632.53;4465885;32;34213;-82
2022/08/19 05:26:25;;;;;;;;;;;;;;;30.94;34.52;98639.22;4465673;32;33857;-86
2022/08/19 05:28:53;;;;;;;;;;;;;;;30.75;34.54;98633.62;4482278;31;34920;-82
2022/08/19 05:31:21;;;;;;;;;;;;;;;30.20;35.29;98640.56;4501059;31;33421;-82
2022/08/19 05:33:50;;;;;;;;;;;;;;;30.32;35.51;98639.59;4515045;31;34023;-82
2022/08/19 05:36:19;;;;;;;;;;;;;;;30.78;34.52;98634.22;4514812;31;34554;-82
2022/08/19 05:38:47;;;;;;;;;;;;;;;30.73;34.51;98635.53;4515494;31;34999;-81
2022/08/19 05:41:15;;;;;;;;;;;;;;;30.83;34.61;98638.38;4515685;31;33208;-82
2022/08/19 05:43:42;;;;;;;;;;;;;;;31.24;34.10;98635.06;4515509;31;33802;-83
2022/08/19 05:46:15;;;;;;;;;;;;;;;30.74;34.55;98643.47;4514764;31;34359;-83
2022/08/19 05:48:42;;;;;;;;;;;;;;;30.73;34.98;98638.22;4514148;31;34374;-82
2022/08/19 05:51:10;;;;;;;;;;;;;;;30.83;34.58;98636.53;4515742;31;32808;-82
2022/08/19 05:53:37;;;;;;;;;;;;;;;30.75;34.42;98633.62;4515422;31;34375;-82
2022/08/19 05:56:05;;;;;;;;;;;;;;;30.37;35.19;98634.75;4515248;31;35113;-82
2022/08/19 05:58:33;;;;;;;;;;;;;;;30.47;35.37;98635.75;4515260;31;34926;-82
2022/08/19 06:01:05;;;;;;;;;;;;;;;31.84;33.52;98633.72;4514110;31;33500;-83
2022/08/19 06:03:33;;;;;;;;;;;;;;;32.41;32.05;98620.94;4514973;31;35058;-83
2022/08/19 06:06:00;;;;;;;;;;;;;;;31.94;32.74;98633.84;4515276;31;35426;-82
2022/08/19 06:08:27;;;;;;;;;;;;;;;32.42;32.12;98623.47;4515175;31;34283;-82
2022/08/19 06:11:16;;;;;;;;;;;;;;;32.57;31.48;98620.47;4515261;31;33468;-82
2022/08/19 06:13:46;;;;;;;;;;;;;;;32.70;31.45;98615.75;4515322;31;34125;-82
2022/08/19 06:16:20;;;;;;;;;;;;;;;31.40;33.47;98629.34;4515215;31;33936;-83
2022/08/19 06:18:54;;;;;;;;;;;;;;;32.28;31.91;98629.16;4514611;31;34636;-82
2022/08/19 06:21:22;;;;;;;;;;;;;;;32.02;32.49;98626.00;4515129;31;33411;-82
2022/08/19 06:23:50;;;;;;;;;;;;;;;32.35;32.10;98611.56;4513620;31;34541;-82
2022/08/19 06:26:18;;;;;;;;;;;;;;;31.53;33.28;98629.19;4514983;31;34394;-82
2022/08/19 06:28:46;;;;;;;;;;;;;;;31.73;32.96;98609.62;4514070;31;34346;-81
2022/08/19 06:31:15;;;;;;;;;;;;;;;32.60;32.17;98612.16;4507127;31;33040;-83
2022/08/19 06:33:44;;;;;;;;;;;;;;;31.92;32.89;98612.50;4515095;31;33670;-87
2022/08/19 06:36:18;;;;;;;;;;;;;;;31.69;32.76;98609.03;4505309;31;33752;-82
2022/08/19 06:38:45;;;;;;;;;;;;;;;31.79;33.10;98606.47;4514962;31;34293;-82
2022/08/19 06:41:12;;;;;;;;;;;;;;;31.59;33.29;98607.25;4515053;31;33247;-82
2022/08/19 06:43:42;;;;;;;;;;;;;;;31.08;34.15;98610.50;4514163;31;35047;-82
2022/08/19 06:46:11;;;;;;;;;;;;;;;30.77;34.52;98597.75;4515112;31;33715;-83
2022/08/19 06:48:41;;;;;;;;;;;;;;;31.33;33.73;98602.22;4513006;31;34245;-83
2022/08/19 06:51:15;;;;;;;;;;;;;;;31.38;33.78;98608.03;4513156;31;33511;-81
2022/08/19 06:53:48;;;;;;;;;;;;;;;31.76;32.99;98620.09;4514884;31;33996;-81
2022/08/19 06:56:22;;;;;;;;;;;;;;;32.25;32.34;98626.72;4514887;31;34302;-82
2022/08/19 06:58:52;;;;;;;;;;;;;;;32.43;31.95;98627.88;4500954;31;34324;-82
2022/08/19 07:01:19;;;;;;;;;;;;;;;32.71;31.35;98644.28;4514879;31;34010;-81
2022/08/19 07:03:46;;;;;;;;;;;;;;;32.73;31.56;98636.06;4514057;31;35011;-82
2022/08/19 07:06:17;;;;;;;;;;;;;;;32.62;31.75;98642.41;4514266;31;34869;-82
2022/08/19 07:09:05;;;;;;;;;;;;;;;33.23;30.56;98645.09;4514815;31;34013;-83
2022/08/19 07:11:33;;;;;;;;;;;;;;;33.28;30.60;98642.84;4513127;31;34325;-83
2022/08/19 07:14:01;;;;;;;;;;;;;;;33.42;30.05;98647.84;4514316;31;35124;-83
2022/08/19 07:16:29;;;;;;;;;;;;;;;33.28;30.28;98640.16;4513901;31;34879;-82
2022/08/19 07:18:57;;;;;;;;;;;;;;;32.91;30.91;98645.22;4514286;31;35020;-83
2022/08/19 07:21:27;;;;;;;;;;;;;;;33.78;29.97;98645.50;4513481;31;33521;-83
2022/08/19 07:23:56;;;;;;;;;;;;;;;32.84;30.78;98655.62;4513780;31;34394;-83
2022/08/19 07:26:25;;;;;;;;;;;;;;;33.33;30.36;98651.31;4513089;31;33908;-82
2022/08/19 07:28:54;;;;;;;;;;;;;;;33.97;29.43;98643.81;4513243;31;34125;-83
2022/08/19 07:31:22;;;;;;;;;;;;;;;34.21;29.36;98649.66;4514294;31;32897;-83
2022/08/19 07:33:50;;;;;;;;;;;;;;;33.94;29.66;98649.47;4511541;31;34111;-84
2022/08/19 07:36:22;;;;;;;;;;;;;;;34.82;28.56;98643.87;4504101;31;34832;-83
2022/08/19 07:38:54;;;;;;;;;;;;;;;35.11;27.91;98634.84;4507717;31;34228;-81
2022/08/19 07:41:22;;;;;;;;;;;;;;;35.63;27.68;98639.69;4513984;31;33594;-82
2022/08/19 07:43:50;;;;;;;;;;;;;;;36.52;26.70;98642.38;4514330;31;34215;-82
2022/08/19 07:46:20;;;;;;;;;;;;;;;35.49;27.51;98641.03;4513963;31;34207;-81
2022/08/19 07:48:48;;;;;;;;;;;;;;;35.78;26.88;98638.16;4513234;31;35071;-81
2022/08/19 07:51:16;;;;;;;;;;;;;;;36.13;26.03;98637.34;4514018;31;33811;-81
2022/08/19 07:54:03;;;;;;;;;;;;;;;36.15;26.38;98640.72;4513675;31;34346;-83
2022/08/19 07:56:30;;;;;;;;;;;;;;;36.77;25.74;98646.94;4512291;31;34272;-83
2022/08/19 07:58:57;;;;;;;;;;;;;;;36.74;25.42;98646.41;4513855;31;34631;-80
2022/08/19 08:01:26;;;;;;;;;;;;;;;36.42;25.55;98658.66;4516086;31;33762;-84
2022/08/19 08:09:27;;;;;;;;;;;;;;;35.77;25.96;98653.50;4515970;31;33985;-82
2022/08/19 08:11:56;;;;;;;;;;;;;;;35.14;25.68;98650.72;4515113;31;33150;-82
2022/08/19 08:14:39;;;;;;;;;;;;;;;36.36;24.48;98653.03;4515441;31;33710;-80
2022/08/19 08:17:10;;;;;;;;;;;;;;;36.35;23.93;98645.94;4498894;31;34060;-82
2022/08/19 08:19:40;;;;;;;;;;;;;;;35.43;24.59;98647.88;4500220;31;34969;-82
2022/08/19 08:22:08;;;;;;;;;;;;;;;36.40;24.28;98649.00;4499973;31;33219;-82
2022/08/19 08:24:35;;;;;;;;;;;;;;;34.77;25.58;98643.47;4498756;31;34133;-83
2022/08/19 08:27:04;;;;;;;;;;;;;;;35.27;24.77;98650.38;4499842;31;34206;-82
2022/08/19 08:29:40;;;;;;;;;;;;;;;35.57;24.58;98644.72;4499991;31;34049;-82
2022/08/19 08:32:08;;;;;;;;;;;;;;;35.71;23.93;98647.88;4500002;31;33519;-82
2022/08/19 08:34:41;;;;;;;;;;;;;;;35.88;24.11;98644.34;4499956;31;34850;-82
2022/08/19 08:37:09;;;;;;;;;;;;;;;35.22;25.20;98634.66;4498858;31;34456;-82
2022/08/19 08:39:36;;;;;;;;;;;;;;;34.56;25.66;98635.59;4499880;31;34687;-82
2022/08/19 08:42:42;;;;;;;;;;;;;;;34.85;25.28;98627.44;4499811;31;33630;-82
2022/08/19 08:45:15;;;;;;;;;;;;;;;35.49;24.95;98617.62;4435797;32;34249;-83
2022/08/19 08:47:43;;;;;;;;;;;;;;;34.83;25.52;98626.72;4450006;32;34114;-87
2022/08/19 08:50:14;;;;;;;;;;;;;;;35.40;25.12;98629.31;4477277;31;34106;-84
2022/08/19 08:52:43;;;;;;;;;;;;;;;35.95;23.77;98648.12;4514584;31;34345;-82
2022/08/19 08:55:16;;;;;;;;;;;;;;;35.83;23.51;98634.00;4509928;31;34051;-82
2022/08/19 08:57:54;;;;;;;;;;;;;;;36.42;23.47;98638.91;4514044;31;34454;-82
2022/08/19 09:00:26;;;;;;;;;;;;;;;35.40;24.22;98626.63;4514836;31;34249;-82
2022/08/19 09:02:54;;;;;;;;;;;;;;;36.04;23.56;98632.88;4514320;31;33258;-82
2022/08/19 09:05:21;;;;;;;;;;;;;;;36.25;23.48;98627.97;4515699;31;34949;-83
2022/08/19 09:08:06;;;;;;;;;;;;;;;35.98;24.13;98618.16;4514302;31;34452;-82
2022/08/19 09:10:37;;;;;;;;;;;;;;;37.16;22.80;98607.78;4515303;31;34325;-82
2022/08/19 09:13:10;;;;;;;;;;;;;;;36.57;23.40;98612.22;4513557;31;33400;-84
2022/08/19 09:15:39;;;;;;;;;;;;;;;36.41;22.54;98618.34;4515335;31;33560;-82
2022/08/19 09:18:06;;;;;;;;;;;;;;;37.04;22.21;98601.84;4514322;31;34173;-82
2022/08/19 09:20:44;;;;;;;;;;;;;;;35.90;23.11;98619.91;4514228;31;35081;-82
2022/08/19 09:23:11;;;;;;;;;;;;;;;35.71;23.54;98602.03;4514076;31;34217;-82
2022/08/19 09:25:39;;;;;;;;;;;;;;;35.82;23.66;98605.34;4515414;31;34252;-82
2022/08/19 09:28:07;;;;;;;;;;;;;;;35.36;23.75;98609.06;4515576;31;34877;-83
2022/08/19 09:30:48;;;;;;;;;;;;;;;35.58;23.17;98599.72;4515538;31;34459;-84
2022/08/19 09:33:15;;;;;;;;;;;;;;;35.60;23.64;98600.41;4515852;31;34246;-82
2022/08/19 09:35:43;;;;;;;;;;;;;;;35.86;23.81;98613.97;4515917;31;33657;-83
2022/08/19 09:38:20;;;;;;;;;;;;;;;35.94;23.28;98603.25;4515337;31;35346;-82
2022/08/19 09:40:48;;;;;;;;;;;;;;;35.44;24.21;98605.59;4515664;31;34360;-82
2022/08/19 09:43:17;;;;;;;;;;;;;;;36.09;23.97;98608.97;4515751;31;33627;-82
2022/08/19 09:46:09;;;;;;;;;;;;;;;35.68;24.68;98600.47;4515317;31;34196;-82
2022/08/19 09:48:36;;;;;;;;;;;;;;;36.41;23.50;98591.34;4515443;31;34189;-82
2022/08/19 09:51:06;;;;;;;;;;;;;;;36.88;23.33;98577.44;4515392;31;35236;-82
2022/08/19 09:53:38;;;;;;;;;;;;;;;37.35;21.92;98585.03;4515422;31;33269;-82
2022/08/19 09:56:06;;;;;;;;;;;;;;;36.76;22.99;98583.13;4515327;31;35003;-83
2022/08/19 09:58:35;;;;;;;;;;;;;;;37.57;22.29;98579.03;4513933;31;35126;-82
2022/08/19 10:01:04;;;;;;;;;;;;;;;38.01;21.56;98586.88;4515143;31;35231;-83
2022/08/19 10:03:32;;;;;;;;;;;;;;;37.54;22.27;98589.34;4515324;31;33742;-82
2022/08/19 10:06:00;;;;;;;;;;;;;;;37.15;22.67;98581.78;4513749;31;33807;-82
2022/08/19 10:08:28;;;;;;;;;;;;;;;37.42;22.44;98584.25;4514858;31;34986;-81
2022/08/19 10:10:57;;;;;;;;;;;;;;;37.81;22.21;98569.25;4513624;31;34291;-82
2022/08/19 10:13:26;;;;;;;;;;;;;;;37.80;21.75;98568.41;4515038;31;33199;-82
2022/08/19 10:15:54;;;;;;;;;;;;;;;37.89;22.02;98566.59;4515107;31;34851;-82
2022/08/19 10:18:23;;;;;;;;;;;;;;;37.32;22.63;98567.31;4513883;31;34469;-81
2022/08/19 10:20:52;;;;;;;;;;;;;;;37.32;22.18;98575.44;4514905;31;33994;-82
2022/08/19 10:23:20;;;;;;;;;;;;;;;37.74;22.18;98572.66;4514943;31;33250;-82
2022/08/19 10:25:47;;;;;;;;;;;;;;;38.31;21.70;98557.41;4515286;31;33810;-82
2022/08/19 10:28:23;;;;;;;;;;;;;;;37.58;22.16;98552.84;4511683;31;34112;-80
2022/08/19 10:30:51;;;;;;;;;;;;;;;38.29;21.05;98562.16;4512909;31;34305;-79
2022/08/19 10:33:18;;;;;;;;;;;;;;;37.96;21.18;98567.59;4515410;31;33741;-79
2022/08/19 10:36:07;;;;;;;;;;;;;;;37.80;21.02;98568.41;4514874;31;34976;-81
2022/08/19 10:38:35;;;;;;;;;;;;;;;38.04;20.77;98564.91;4513713;31;34246;-80
2022/08/19 10:41:13;;;;;;;;;;;;;;;38.47;20.32;98556.56;4514913;31;35029;-81
2022/08/19 10:43:40;;;;;;;;;;;;;;;38.61;19.95;98581.06;4513836;31;33519;-81
2022/08/19 10:46:08;;;;;;;;;;;;;;;38.67;20.08;98564.09;4514682;31;34064;-82
2022/08/19 10:48:42;;;;;;;;;;;;;;;38.36;19.84;98569.44;4511613;31;34535;-81
2022/08/19 10:54:00;;;;;;;;;;;;;;;38.76;19.83;98554.09;4476345;31;33395;-80
2022/08/19 10:59:15;;;;;;;;;;;;;;;39.02;19.23;98563.81;4498893;31;34174;-80
2022/08/19 11:01:43;;;;;;;;;;;;;;;38.32;20.26;98562.66;4498918;31;35141;-81
2022/08/19 11:04:11;;;;;;;;;;;;;;;39.38;19.25;98566.88;4498446;31;33294;-81
2022/08/19 11:06:38;;;;;;;;;;;;;;;38.52;19.92;98559.59;4498651;31;34888;-84
2022/08/19 11:09:06;;;;;;;;;;;;;;;39.16;19.44;98558.50;4497455;31;34969;-84
2022/08/19 11:11:39;;;;;;;;;;;;;;;38.72;19.51;98563.59;4497151;31;33996;-83
2022/08/19 11:14:11;;;;;;;;;;;;;;;38.99;19.06;98561.50;4498640;31;33354;-83
2022/08/19 11:16:39;;;;;;;;;;;;;;;39.55;18.75;98560.34;4498540;31;34347;-85
2022/08/19 11:19:07;;;;;;;;;;;;;;;39.70;18.42;98567.72;4498473;31;34439;-83
2022/08/19 11:21:36;;;;;;;;;;;;;;;40.02;18.04;98570.16;4498436;31;35121;-82
2022/08/19 11:24:05;;;;;;;;;;;;;;;39.85;18.80;98569.44;4498451;31;34356;-82
2022/08/19 11:26:33;;;;;;;;;;;;;;;40.46;17.90;98558.56;4498375;31;34860;-84
2022/08/19 11:29:00;;;;;;;;;;;;;;;39.48;18.55;98563.97;4498400;31;34451;-81
2022/08/19 11:31:30;;;;;;;;;;;;;;;40.19;17.85;98568.16;4496970;31;34074;-81
2022/08/19 11:33:59;;;;;;;;;;;;;;;40.28;17.72;98567.06;4496996;31;33545;-82
2022/08/19 11:36:27;;;;;;;;;;;;;;;39.43;18.39;98572.62;4499921;31;34333;-82
2022/08/19 11:38:54;;;;;;;;;;;;;;;40.31;18.15;98555.84;4506446;31;33880;-83
2022/08/19 11:41:23;;;;;;;;;;;;;;;40.04;18.41;98573.53;4507360;31;34035;-81
2022/08/19 11:43:52;;;;;;;;;;;;;;;40.43;17.89;98553.50;4513885;31;33389;-83
2022/08/19 11:46:20;;;;;;;;;;;;;;;40.55;18.71;98552.03;4515869;31;33755;-81
2022/08/19 11:48:48;;;;;;;;;;;;;;;40.74;17.42;98556.06;4514870;31;34416;-81
2022/08/19 11:51:18;;;;;;;;;;;;;;;39.65;18.81;98550.06;4516340;31;34936;-81
2022/08/19 11:53:45;;;;;;;;;;;;;;;40.38;17.71;98540.47;4516179;31;32992;-85
2022/08/19 11:56:12;;;;;;;;;;;;;;;39.91;18.51;98548.88;4514850;31;35026;-82
2022/08/19 11:58:41;;;;;;;;;;;;;;;39.35;19.16;98550.97;4516032;31;34473;-84
2022/08/19 12:01:10;;;;;;;;;;;;;;;39.83;18.83;98546.25;4516264;31;33883;-84
2022/08/19 12:03:38;;;;;;;;;;;;;;;40.13;18.67;98548.03;4515951;31;33310;-81
2022/08/19 12:06:06;;;;;;;;;;;;;;;40.52;18.07;98552.37;4514597;31;34013;-81
2022/08/19 12:08:34;;;;;;;;;;;;;;;39.57;18.72;98552.84;4514716;31;34310;-80
2022/08/19 12:11:01;;;;;;;;;;;;;;;39.91;18.73;98542.63;4514589;31;35269;-81
2022/08/19 12:13:31;;;;;;;;;;;;;;;40.21;18.17;98554.41;4516085;31;33925;-81
2022/08/19 12:15:59;;;;;;;;;;;;;;;39.42;19.05;98554.66;4516007;31;34080;-80
2022/08/19 12:18:26;;;;;;;;;;;;;;;40.47;18.37;98552.09;4514405;31;34907;-81
2022/08/19 12:20:57;;;;;;;;;;;;;;;40.87;17.78;98547.22;4515989;31;34186;-83
2022/08/19 12:23:24;;;;;;;;;;;;;;;41.02;17.42;98548.06;4515966;31;33390;-81
2022/08/19 12:25:52;;;;;;;;;;;;;;;41.21;17.13;98551.22;4515876;31;34972;-81
2022/08/19 12:28:20;;;;;;;;;;;;;;;41.60;16.63;98544.53;4515639;31;34409;-81
2022/08/19 12:30:48;;;;;;;;;;;;;;;40.57;17.62;98549.97;4515875;31;34586;-82
2022/08/19 12:33:15;;;;;;;;;;;;;;;41.05;17.47;98536.81;4515829;31;34360;-81
2022/08/19 12:35:44;;;;;;;;;;;;;;;39.71;18.47;98542.28;4515907;31;34202;-82
2022/08/19 12:38:12;;;;;;;;;;;;;;;40.34;17.81;98533.72;4516113;31;34461;-82
2022/08/19 12:40:40;;;;;;;;;;;;;;;39.07;18.50;98529.75;4515764;31;34769;-82
2022/08/19 12:43:07;;;;;;;;;;;;;;;39.31;18.54;98523.37;4515727;31;33733;-81
2022/08/19 12:45:35;;;;;;;;;;;;;;;39.53;18.62;98524.41;4515841;31;34302;-83
2022/08/19 12:48:04;;;;;;;;;;;;;;;39.73;18.52;98526.66;4515414;31;34254;-83
2022/08/19 12:50:51;;;;;;;;;;;;;;;40.09;18.04;98507.84;4515656;31;34226;-85
2022/08/19 12:53:19;;;;;;;;;;;;;;;39.96;17.47;98513.88;4515734;31;34141;-81
2022/08/19 12:55:46;;;;;;;;;;;;;;;39.78;17.96;98516.94;4488056;31;861151;-80
2022/08/19 12:58:13;;;;;;;;;;;;;;;40.46;17.45;98515.09;4515597;31;33499;-85
2022/08/19 13:00:41;;;;;;;;;;;;;;;39.76;18.47;98526.28;4515530;31;34421;-83
2022/08/19 13:03:10;;;;;;;;;;;;;;;39.32;18.62;98521.50;4515490;31;33910;-85
2022/08/19 13:05:38;;;;;;;;;;;;;;;39.57;18.57;98512.16;4515889;31;33370;-83
2022/08/19 13:08:05;;;;;;;;;;;;;;;40.68;17.68;98501.63;4515445;31;34518;-80
2022/08/19 13:10:36;;;;;;;;;;;;;;;40.73;17.39;98510.06;4515388;31;35091;-81
2022/08/19 13:13:05;;;;;;;;;;;;;;;41.04;17.11;98504.41;4514825;31;33175;-80
2022/08/19 13:15:34;;;;;;;;;;;;;;;40.95;17.90;98509.06;4515304;31;34090;-80
2022/08/19 13:18:01;;;;;;;;;;;;;;;40.80;17.41;98506.41;4514349;31;34381;-80
2022/08/19 13:20:29;;;;;;;;;;;;;;;41.16;17.10;98500.13;4514323;31;33242;-80